NFTF/TBU METAR and TAF weather

Enter ICAO airport designator
Station Type Date Time Source
NFTF METAR 2019/06/18 04:00 UTC NOAA

NFTF 180400Z 12006KT 9999 FEW017 BKN045 24/21 Q1015


Station Type Date Time Source
NFTF Decoded METAR 2019/06/18 04:00 UTC NOAA

Fua'Amotu, Tonga (NFTF) 21-14S 175-09W 41M
Jun 18, 2019 - 12:00 AM EDT / 2019.06.18 0400 UTC
Wind: from the ESE (120 degrees) at 7 MPH (6 KT):0
Visibility: greater than 7 mile(s):0
Sky conditions: mostly cloudy
Temperature: 75 F (24 C)
Dew Point: 69 F (21 C)
Relative Humidity: 83%
Pressure (altimeter): 29.97 in. Hg (1015 hPa)
ob: NFTF 180400Z 12006KT 9999 FEW017 BKN045 24/21 Q1015
cycle: 4

Station Type Date Time Source
NFTF TAF 2019/06/17 18:12 UTC NOAA

TAF NFTF 171709Z 1718/1818 12005KT 9999 FEW017

Example: see airport list